sensor_id;sensor_type;location;lat;lon;timestamp;pressure;altitude;pressure_sealevel;temperature
72287;BMP180;60221;45.696;16.076;2022-12-18T00:01:16;102040.00;;;5.20
72287;BMP180;60221;45.696;16.076;2022-12-18T00:03:45;102041.00;;;5.20
72287;BMP180;60221;45.696;16.076;2022-12-18T00:06:13;102048.00;;;5.20
72287;BMP180;60221;45.696;16.076;2022-12-18T00:08:42;102059.00;;;5.20
72287;BMP180;60221;45.696;16.076;2022-12-18T00:11:13;102066.00;;;5.10
72287;BMP180;60221;45.696;16.076;2022-12-18T00:13:40;102059.00;;;5.10
72287;BMP180;60221;45.696;16.076;2022-12-18T00:16:10;102067.00;;;5.10
72287;BMP180;60221;45.696;16.076;2022-12-18T00:18:38;102065.00;;;5.10
72287;BMP180;60221;45.696;16.076;2022-12-18T00:21:07;102068.00;;;5.10
72287;BMP180;60221;45.696;16.076;2022-12-18T00:23:36;102057.00;;;5.10
72287;BMP180;60221;45.696;16.076;2022-12-18T00:26:07;102080.00;;;5.10
72287;BMP180;60221;45.696;16.076;2022-12-18T00:28:35;102071.00;;;5.10
72287;BMP180;60221;45.696;16.076;2022-12-18T00:31:07;102087.00;;;5.10
72287;BMP180;60221;45.696;16.076;2022-12-18T00:33:36;102083.00;;;5.10
72287;BMP180;60221;45.696;16.076;2022-12-18T00:36:06;102083.00;;;5.00
72287;BMP180;60221;45.696;16.076;2022-12-18T00:38:36;102086.00;;;5.00
72287;BMP180;60221;45.696;16.076;2022-12-18T00:41:03;102094.00;;;5.00
72287;BMP180;60221;45.696;16.076;2022-12-18T00:43:31;102086.00;;;4.90
72287;BMP180;60221;45.696;16.076;2022-12-18T00:45:58;102088.00;;;4.90
72287;BMP180;60221;45.696;16.076;2022-12-18T00:48:25;102093.00;;;4.80
72287;BMP180;60221;45.696;16.076;2022-12-18T00:50:51;102098.00;;;4.80
72287;BMP180;60221;45.696;16.076;2022-12-18T00:53:18;102100.00;;;4.70
72287;BMP180;60221;45.696;16.076;2022-12-18T00:55:45;102103.00;;;4.70
72287;BMP180;60221;45.696;16.076;2022-12-18T00:58:13;102103.00;;;4.60
72287;BMP180;60221;45.696;16.076;2022-12-18T01:00:42;102106.00;;;4.60
72287;BMP180;60221;45.696;16.076;2022-12-18T01:03:12;102096.00;;;4.50
72287;BMP180;60221;45.696;16.076;2022-12-18T01:05:40;102107.00;;;4.50
72287;BMP180;60221;45.696;16.076;2022-12-18T01:08:07;102106.00;;;4.40
72287;BMP180;60221;45.696;16.076;2022-12-18T01:10:34;102113.00;;;4.40
72287;BMP180;60221;45.696;16.076;2022-12-18T01:13:00;102112.00;;;4.30
72287;BMP180;60221;45.696;16.076;2022-12-18T01:15:26;102116.00;;;4.30
72287;BMP180;60221;45.696;16.076;2022-12-18T01:17:53;102112.00;;;4.30
72287;BMP180;60221;45.696;16.076;2022-12-18T01:20:19;102110.00;;;4.20
72287;BMP180;60221;45.696;16.076;2022-12-18T01:22:45;102115.00;;;4.20
72287;BMP180;60221;45.696;16.076;2022-12-18T01:25:12;102120.00;;;4.10
72287;BMP180;60221;45.696;16.076;2022-12-18T01:27:38;102127.00;;;4.00
72287;BMP180;60221;45.696;16.076;2022-12-18T01:30:05;102127.00;;;4.00
72287;BMP180;60221;45.696;16.076;2022-12-18T01:32:32;102125.00;;;3.90
72287;BMP180;60221;45.696;16.076;2022-12-18T01:34:59;102126.00;;;3.90
72287;BMP180;60221;45.696;16.076;2022-12-18T01:37:26;102134.00;;;3.80
72287;BMP180;60221;45.696;16.076;2022-12-18T01:39:53;102137.00;;;3.80
72287;BMP180;60221;45.696;16.076;2022-12-18T01:42:21;102135.00;;;3.70
72287;BMP180;60221;45.696;16.076;2022-12-18T01:47:45;102148.00;;;3.60
72287;BMP180;60221;45.696;16.076;2022-12-18T01:50:36;102150.00;;;3.60
72287;BMP180;60221;45.696;16.076;2022-12-18T01:55:43;102152.00;;;3.50
72287;BMP180;60221;45.696;16.076;2022-12-18T01:58:13;102149.00;;;3.40
72287;BMP180;60221;45.696;16.076;2022-12-18T02:00:41;102152.00;;;3.40
72287;BMP180;60221;45.696;16.076;2022-12-18T02:03:07;102147.00;;;3.40
72287;BMP180;60221;45.696;16.076;2022-12-18T02:11:42;102169.00;;;3.30
72287;BMP180;60221;45.696;16.076;2022-12-18T02:17:22;102168.00;;;3.10
72287;BMP180;60221;45.696;16.076;2022-12-18T02:22:44;102171.00;;;3.10
72287;BMP180;60221;45.696;16.076;2022-12-18T02:27:46;102184.00;;;2.90
72287;BMP180;60221;45.696;16.076;2022-12-18T02:30:15;102184.00;;;2.90
72287;BMP180;60221;45.696;16.076;2022-12-18T02:32:46;102187.00;;;2.90
72287;BMP180;60221;45.696;16.076;2022-12-18T02:35:17;102184.00;;;2.90
72287;BMP180;60221;45.696;16.076;2022-12-18T02:37:47;102190.00;;;2.90
72287;BMP180;60221;45.696;16.076;2022-12-18T02:40:15;102184.00;;;2.80
72287;BMP180;60221;45.696;16.076;2022-12-18T02:42:44;102192.00;;;2.80
72287;BMP180;60221;45.696;16.076;2022-12-18T02:45:12;102190.00;;;2.80
72287;BMP180;60221;45.696;16.076;2022-12-18T02:47:42;102192.00;;;2.70
72287;BMP180;60221;45.696;16.076;2022-12-18T02:50:30;102197.00;;;2.70
72287;BMP180;60221;45.696;16.076;2022-12-18T02:58:59;102204.00;;;2.60
72287;BMP180;60221;45.696;16.076;2022-12-18T03:07:09;102203.00;;;2.60
72287;BMP180;60221;45.696;16.076;2022-12-18T03:09:42;102212.00;;;2.60
72287;BMP180;60221;45.696;16.076;2022-12-18T03:12:30;102218.00;;;2.50
72287;BMP180;60221;45.696;16.076;2022-12-18T03:17:55;102222.00;;;2.50
72287;BMP180;60221;45.696;16.076;2022-12-18T03:20:26;102226.00;;;2.40
72287;BMP180;60221;45.696;16.076;2022-12-18T03:22:58;102228.00;;;2.40
72287;BMP180;60221;45.696;16.076;2022-12-18T03:25:27;102235.00;;;2.40
72287;BMP180;60221;45.696;16.076;2022-12-18T03:27:58;102230.00;;;2.40
72287;BMP180;60221;45.696;16.076;2022-12-18T03:30:28;102221.00;;;2.40
72287;BMP180;60221;45.696;16.076;2022-12-18T03:33:04;102230.00;;;2.40
72287;BMP180;60221;45.696;16.076;2022-12-18T03:35:41;102225.00;;;2.40
72287;BMP180;60221;45.696;16.076;2022-12-18T03:38:10;102230.00;;;2.40
72287;BMP180;60221;45.696;16.076;2022-12-18T03:40:59;102239.00;;;2.40
72287;BMP180;60221;45.696;16.076;2022-12-18T03:55:19;102250.00;;;2.30
72287;BMP180;60221;45.696;16.076;2022-12-18T03:57:51;102249.00;;;2.30
72287;BMP180;60221;45.696;16.076;2022-12-18T04:00:19;102257.00;;;2.30
72287;BMP180;60221;45.696;16.076;2022-12-18T04:02:55;102254.00;;;2.30
72287;BMP180;60221;45.696;16.076;2022-12-18T04:05:27;102257.00;;;2.30
72287;BMP180;60221;45.696;16.076;2022-12-18T04:07:57;102258.00;;;2.30
72287;BMP180;60221;45.696;16.076;2022-12-18T04:10:24;102271.00;;;2.30
72287;BMP180;60221;45.696;16.076;2022-12-18T04:12:55;102271.00;;;2.30
72287;BMP180;60221;45.696;16.076;2022-12-18T04:15:24;102280.00;;;2.30
72287;BMP180;60221;45.696;16.076;2022-12-18T04:17:51;102270.00;;;2.20
72287;BMP180;60221;45.696;16.076;2022-12-18T04:20:19;102279.00;;;2.30
72287;BMP180;60221;45.696;16.076;2022-12-18T04:22:47;102290.00;;;2.30
72287;BMP180;60221;45.696;16.076;2022-12-18T04:25:14;102296.00;;;2.30
72287;BMP180;60221;45.696;16.076;2022-12-18T04:27:42;102288.00;;;2.30
72287;BMP180;60221;45.696;16.076;2022-12-18T04:30:09;102295.00;;;2.30
72287;BMP180;60221;45.696;16.076;2022-12-18T04:32:37;102295.00;;;2.30
72287;BMP180;60221;45.696;16.076;2022-12-18T04:35:04;102293.00;;;2.30
72287;BMP180;60221;45.696;16.076;2022-12-18T04:37:32;102297.00;;;2.30
72287;BMP180;60221;45.696;16.076;2022-12-18T04:39:59;102301.00;;;2.30
72287;BMP180;60221;45.696;16.076;2022-12-18T04:42:27;102299.00;;;2.40
72287;BMP180;60221;45.696;16.076;2022-12-18T04:44:53;102290.00;;;2.40
72287;BMP180;60221;45.696;16.076;2022-12-18T04:47:19;102304.00;;;2.40
72287;BMP180;60221;45.696;16.076;2022-12-18T04:49:45;102303.00;;;2.40
72287;BMP180;60221;45.696;16.076;2022-12-18T04:52:12;102306.00;;;2.40
72287;BMP180;60221;45.696;16.076;2022-12-18T04:54:38;102312.00;;;2.40
72287;BMP180;60221;45.696;16.076;2022-12-18T04:57:04;102313.00;;;2.40
72287;BMP180;60221;45.696;16.076;2022-12-18T04:59:30;102316.00;;;2.40
72287;BMP180;60221;45.696;16.076;2022-12-18T05:01:56;102325.00;;;2.40
72287;BMP180;60221;45.696;16.076;2022-12-18T05:04:22;102326.00;;;2.40
72287;BMP180;60221;45.696;16.076;2022-12-18T05:06:48;102324.00;;;2.40
72287;BMP180;60221;45.696;16.076;2022-12-18T05:09:14;102332.00;;;2.40
72287;BMP180;60221;45.696;16.076;2022-12-18T05:11:40;102333.00;;;2.50
72287;BMP180;60221;45.696;16.076;2022-12-18T05:14:07;102335.00;;;2.50
72287;BMP180;60221;45.696;16.076;2022-12-18T05:16:33;102340.00;;;2.50
72287;BMP180;60221;45.696;16.076;2022-12-18T05:18:59;102338.00;;;2.50
72287;BMP180;60221;45.696;16.076;2022-12-18T05:21:25;102344.00;;;2.50
72287;BMP180;60221;45.696;16.076;2022-12-18T05:23:51;102351.00;;;2.50
72287;BMP180;60221;45.696;16.076;2022-12-18T05:26:18;102352.00;;;2.40
72287;BMP180;60221;45.696;16.076;2022-12-18T05:28:45;102347.00;;;2.40
72287;BMP180;60221;45.696;16.076;2022-12-18T05:31:12;102367.00;;;2.40
72287;BMP180;60221;45.696;16.076;2022-12-18T05:33:39;102373.00;;;2.50
72287;BMP180;60221;45.696;16.076;2022-12-18T05:36:07;102361.00;;;2.40
72287;BMP180;60221;45.696;16.076;2022-12-18T05:38:36;102356.00;;;2.50
72287;BMP180;60221;45.696;16.076;2022-12-18T05:41:04;102363.00;;;2.50
72287;BMP180;60221;45.696;16.076;2022-12-18T05:43:31;102364.00;;;2.40
72287;BMP180;60221;45.696;16.076;2022-12-18T05:46:08;102371.00;;;2.40
72287;BMP180;60221;45.696;16.076;2022-12-18T05:48:36;102387.00;;;2.40
72287;BMP180;60221;45.696;16.076;2022-12-18T05:51:07;102389.00;;;2.40
72287;BMP180;60221;45.696;16.076;2022-12-18T05:53:37;102391.00;;;2.40
72287;BMP180;60221;45.696;16.076;2022-12-18T05:56:09;102401.00;;;2.40
72287;BMP180;60221;45.696;16.076;2022-12-18T05:58:35;102412.00;;;2.40
72287;BMP180;60221;45.696;16.076;2022-12-18T06:01:17;102416.00;;;2.40
72287;BMP180;60221;45.696;16.076;2022-12-18T06:03:43;102417.00;;;2.40
72287;BMP180;60221;45.696;16.076;2022-12-18T06:06:26;102420.00;;;2.40
72287;BMP180;60221;45.696;16.076;2022-12-18T06:08:52;102411.00;;;2.40
72287;BMP180;60221;45.696;16.076;2022-12-18T06:11:23;102423.00;;;2.40
72287;BMP180;60221;45.696;16.076;2022-12-18T06:13:56;102439.00;;;2.40
72287;BMP180;60221;45.696;16.076;2022-12-18T06:16:20;102428.00;;;2.50
72287;BMP180;60221;45.696;16.076;2022-12-18T06:18:46;102434.00;;;2.50
72287;BMP180;60221;45.696;16.076;2022-12-18T06:21:12;102429.00;;;2.50
72287;BMP180;60221;45.696;16.076;2022-12-18T06:23:39;102435.00;;;2.50
72287;BMP180;60221;45.696;16.076;2022-12-18T06:26:08;102427.00;;;2.50
72287;BMP180;60221;45.696;16.076;2022-12-18T06:28:35;102425.00;;;2.50
72287;BMP180;60221;45.696;16.076;2022-12-18T06:31:05;102431.00;;;2.50
72287;BMP180;60221;45.696;16.076;2022-12-18T06:33:32;102440.00;;;2.40
72287;BMP180;60221;45.696;16.076;2022-12-18T06:36:05;102440.00;;;2.40
72287;BMP180;60221;45.696;16.076;2022-12-18T06:38:34;102436.00;;;2.40
72287;BMP180;60221;45.696;16.076;2022-12-18T06:41:07;102428.00;;;2.40
72287;BMP180;60221;45.696;16.076;2022-12-18T06:43:38;102445.00;;;2.40
72287;BMP180;60221;45.696;16.076;2022-12-18T06:46:05;102438.00;;;2.40
72287;BMP180;60221;45.696;16.076;2022-12-18T06:48:32;102440.00;;;2.30
72287;BMP180;60221;45.696;16.076;2022-12-18T06:50:59;102447.00;;;2.30
72287;BMP180;60221;45.696;16.076;2022-12-18T06:53:25;102451.00;;;2.30
72287;BMP180;60221;45.696;16.076;2022-12-18T06:55:52;102457.00;;;2.30
72287;BMP180;60221;45.696;16.076;2022-12-18T06:58:18;102460.00;;;2.30
72287;BMP180;60221;45.696;16.076;2022-12-18T07:00:44;102474.00;;;2.30
72287;BMP180;60221;45.696;16.076;2022-12-18T07:03:10;102467.00;;;2.30
72287;BMP180;60221;45.696;16.076;2022-12-18T07:05:40;102473.00;;;2.40
72287;BMP180;60221;45.696;16.076;2022-12-18T07:08:06;102476.00;;;2.40
72287;BMP180;60221;45.696;16.076;2022-12-18T07:10:33;102476.00;;;2.40
72287;BMP180;60221;45.696;16.076;2022-12-18T07:12:59;102472.00;;;2.50
72287;BMP180;60221;45.696;16.076;2022-12-18T07:15:25;102474.00;;;2.50
72287;BMP180;60221;45.696;16.076;2022-12-18T07:17:51;102477.00;;;2.50
72287;BMP180;60221;45.696;16.076;2022-12-18T07:20:17;102473.00;;;2.60
72287;BMP180;60221;45.696;16.076;2022-12-18T07:22:43;102480.00;;;2.60
72287;BMP180;60221;45.696;16.076;2022-12-18T07:25:09;102477.00;;;2.70
72287;BMP180;60221;45.696;16.076;2022-12-18T07:27:35;102480.00;;;2.70
72287;BMP180;60221;45.696;16.076;2022-12-18T07:30:02;102481.00;;;2.70
72287;BMP180;60221;45.696;16.076;2022-12-18T07:32:30;102485.00;;;2.70
72287;BMP180;60221;45.696;16.076;2022-12-18T07:34:56;102479.00;;;2.80
72287;BMP180;60221;45.696;16.076;2022-12-18T07:37:22;102475.00;;;2.80
72287;BMP180;60221;45.696;16.076;2022-12-18T07:39:48;102489.00;;;2.80
72287;BMP180;60221;45.696;16.076;2022-12-18T07:42:14;102489.00;;;2.80
72287;BMP180;60221;45.696;16.076;2022-12-18T07:44:56;102497.00;;;2.80
72287;BMP180;60221;45.696;16.076;2022-12-18T07:47:23;102503.00;;;2.90
72287;BMP180;60221;45.696;16.076;2022-12-18T07:49:49;102506.00;;;2.90
72287;BMP180;60221;45.696;16.076;2022-12-18T07:52:16;102517.00;;;3.00
72287;BMP180;60221;45.696;16.076;2022-12-18T07:54:42;102515.00;;;3.10
72287;BMP180;60221;45.696;16.076;2022-12-18T07:57:08;102517.00;;;3.10
72287;BMP180;60221;45.696;16.076;2022-12-18T07:59:34;102517.00;;;3.10
72287;BMP180;60221;45.696;16.076;2022-12-18T08:02:01;102520.00;;;3.10
72287;BMP180;60221;45.696;16.076;2022-12-18T08:04:27;102528.00;;;3.20
72287;BMP180;60221;45.696;16.076;2022-12-18T08:06:53;102530.00;;;3.20
72287;BMP180;60221;45.696;16.076;2022-12-18T08:09:19;102530.00;;;3.10
72287;BMP180;60221;45.696;16.076;2022-12-18T08:11:46;102541.00;;;3.10
72287;BMP180;60221;45.696;16.076;2022-12-18T08:14:12;102544.00;;;3.10
72287;BMP180;60221;45.696;16.076;2022-12-18T08:16:38;102551.00;;;3.10
72287;BMP180;60221;45.696;16.076;2022-12-18T08:19:04;102546.00;;;3.20
72287;BMP180;60221;45.696;16.076;2022-12-18T08:21:31;102546.00;;;3.20
72287;BMP180;60221;45.696;16.076;2022-12-18T08:24:00;102544.00;;;3.20
72287;BMP180;60221;45.696;16.076;2022-12-18T08:26:29;102540.00;;;3.30
72287;BMP180;60221;45.696;16.076;2022-12-18T08:28:57;102536.00;;;3.30
72287;BMP180;60221;45.696;16.076;2022-12-18T08:31:26;102532.00;;;3.30
72287;BMP180;60221;45.696;16.076;2022-12-18T08:33:54;102532.00;;;3.30
72287;BMP180;60221;45.696;16.076;2022-12-18T08:36:22;102537.00;;;3.30
72287;BMP180;60221;45.696;16.076;2022-12-18T08:38:49;102544.00;;;3.30
72287;BMP180;60221;45.696;16.076;2022-12-18T08:41:17;102545.00;;;3.20
72287;BMP180;60221;45.696;16.076;2022-12-18T08:43:44;102539.00;;;3.20
72287;BMP180;60221;45.696;16.076;2022-12-18T08:46:38;102540.00;;;3.20
72287;BMP180;60221;45.696;16.076;2022-12-18T08:49:03;102549.00;;;3.30
72287;BMP180;60221;45.696;16.076;2022-12-18T08:51:31;102543.00;;;3.20
72287;BMP180;60221;45.696;16.076;2022-12-18T08:53:58;102547.00;;;3.20
72287;BMP180;60221;45.696;16.076;2022-12-18T08:56:25;102542.00;;;3.20
72287;BMP180;60221;45.696;16.076;2022-12-18T08:58:53;102542.00;;;3.20
72287;BMP180;60221;45.696;16.076;2022-12-18T09:01:20;102544.00;;;3.20
72287;BMP180;60221;45.696;16.076;2022-12-18T09:03:48;102547.00;;;3.10
72287;BMP180;60221;45.696;16.076;2022-12-18T09:06:18;102546.00;;;3.10
72287;BMP180;60221;45.696;16.076;2022-12-18T09:08:46;102547.00;;;3.10
72287;BMP180;60221;45.696;16.076;2022-12-18T09:11:17;102545.00;;;3.10
72287;BMP180;60221;45.696;16.076;2022-12-18T09:13:47;102559.00;;;3.10
72287;BMP180;60221;45.696;16.076;2022-12-18T09:16:13;102564.00;;;3.20
72287;BMP180;60221;45.696;16.076;2022-12-18T09:18:39;102564.00;;;3.20
72287;BMP180;60221;45.696;16.076;2022-12-18T09:21:10;102578.00;;;3.20
72287;BMP180;60221;45.696;16.076;2022-12-18T09:23:39;102567.00;;;3.30
72287;BMP180;60221;45.696;16.076;2022-12-18T09:26:05;102563.00;;;3.30
72287;BMP180;60221;45.696;16.076;2022-12-18T09:28:33;102562.00;;;3.30
72287;BMP180;60221;45.696;16.076;2022-12-18T09:31:05;102560.00;;;3.40
72287;BMP180;60221;45.696;16.076;2022-12-18T09:33:35;102565.00;;;3.40
72287;BMP180;60221;45.696;16.076;2022-12-18T09:36:07;102567.00;;;3.40
72287;BMP180;60221;45.696;16.076;2022-12-18T09:38:35;102574.00;;;3.40
72287;BMP180;60221;45.696;16.076;2022-12-18T09:43:52;102553.00;;;3.50
72287;BMP180;60221;45.696;16.076;2022-12-18T09:46:26;102551.00;;;3.50
72287;BMP180;60221;45.696;16.076;2022-12-18T09:48:59;102545.00;;;3.60
72287;BMP180;60221;45.696;16.076;2022-12-18T09:51:37;102548.00;;;3.60
72287;BMP180;60221;45.696;16.076;2022-12-18T09:54:10;102545.00;;;3.60
72287;BMP180;60221;45.696;16.076;2022-12-18T09:56:41;102544.00;;;3.60
72287;BMP180;60221;45.696;16.076;2022-12-18T09:59:21;102553.00;;;3.60
72287;BMP180;60221;45.696;16.076;2022-12-18T10:01:52;102543.00;;;3.70
72287;BMP180;60221;45.696;16.076;2022-12-18T10:04:18;102531.00;;;3.70
72287;BMP180;60221;45.696;16.076;2022-12-18T10:07:03;102542.00;;;3.80
72287;BMP180;60221;45.696;16.076;2022-12-18T10:10:01;102549.00;;;3.80
72287;BMP180;60221;45.696;16.076;2022-12-18T10:12:56;102553.00;;;3.90
72287;BMP180;60221;45.696;16.076;2022-12-18T10:21:13;102547.00;;;4.00
72287;BMP180;60221;45.696;16.076;2022-12-18T10:26:31;102540.00;;;4.00
72287;BMP180;60221;45.696;16.076;2022-12-18T10:28:59;102540.00;;;4.10
72287;BMP180;60221;45.696;16.076;2022-12-18T10:31:25;102532.00;;;4.10
72287;BMP180;60221;45.696;16.076;2022-12-18T10:33:53;102523.00;;;4.10
72287;BMP180;60221;45.696;16.076;2022-12-18T10:36:22;102521.00;;;4.10
72287;BMP180;60221;45.696;16.076;2022-12-18T10:38:50;102530.00;;;4.10
72287;BMP180;60221;45.696;16.076;2022-12-18T10:44:18;102522.00;;;4.20
72287;BMP180;60221;45.696;16.076;2022-12-18T10:47:05;102516.00;;;4.30
72287;BMP180;60221;45.696;16.076;2022-12-18T10:49:27;102511.00;;;4.30
72287;BMP180;60221;45.696;16.076;2022-12-18T10:52:17;102511.00;;;4.30
72287;BMP180;60221;45.696;16.076;2022-12-18T10:54:56;102504.00;;;4.40
72287;BMP180;60221;45.696;16.076;2022-12-18T11:00:28;102509.00;;;4.40
72287;BMP180;60221;45.696;16.076;2022-12-18T11:02:56;102512.00;;;4.50
72287;BMP180;60221;45.696;16.076;2022-12-18T11:05:33;102506.00;;;4.50
72287;BMP180;60221;45.696;16.076;2022-12-18T11:08:03;102502.00;;;4.50
72287;BMP180;60221;45.696;16.076;2022-12-18T11:10:37;102504.00;;;4.50
72287;BMP180;60221;45.696;16.076;2022-12-18T11:13:18;102493.00;;;4.50
72287;BMP180;60221;45.696;16.076;2022-12-18T11:15:48;102497.00;;;4.50
72287;BMP180;60221;45.696;16.076;2022-12-18T11:20:55;102493.00;;;4.60
72287;BMP180;60221;45.696;16.076;2022-12-18T11:23:25;102488.00;;;4.60
72287;BMP180;60221;45.696;16.076;2022-12-18T11:25:59;102482.00;;;4.60
72287;BMP180;60221;45.696;16.076;2022-12-18T11:28:49;102486.00;;;4.60
72287;BMP180;60221;45.696;16.076;2022-12-18T11:31:23;102485.00;;;4.60
72287;BMP180;60221;45.696;16.076;2022-12-18T11:36:32;102482.00;;;4.60
72287;BMP180;60221;45.696;16.076;2022-12-18T11:39:07;102465.00;;;4.60
72287;BMP180;60221;45.696;16.076;2022-12-18T11:41:41;102469.00;;;4.60
72287;BMP180;60221;45.696;16.076;2022-12-18T11:44:43;102464.00;;;4.60
72287;BMP180;60221;45.696;16.076;2022-12-18T11:53:04;102481.00;;;4.70
72287;BMP180;60221;45.696;16.076;2022-12-18T11:55:54;102480.00;;;4.70
72287;BMP180;60221;45.696;16.076;2022-12-18T12:03:58;102474.00;;;4.80
72287;BMP180;60221;45.696;16.076;2022-12-18T12:09:31;102478.00;;;4.80
72287;BMP180;60221;45.696;16.076;2022-12-18T12:30:08;102462.00;;;4.80
72287;BMP180;60221;45.696;16.076;2022-12-18T12:39:01;102449.00;;;4.90
72287;BMP180;60221;45.696;16.076;2022-12-18T12:41:31;102442.00;;;4.90
72287;BMP180;60221;45.696;16.076;2022-12-18T12:44:24;102441.00;;;4.90
72287;BMP180;60221;45.696;16.076;2022-12-18T12:46:59;102443.00;;;4.90
72287;BMP180;60221;45.696;16.076;2022-12-18T12:49:31;102442.00;;;4.90
72287;BMP180;60221;45.696;16.076;2022-12-18T12:52:17;102438.00;;;4.90
72287;BMP180;60221;45.696;16.076;2022-12-18T12:54:47;102431.00;;;4.90
72287;BMP180;60221;45.696;16.076;2022-12-18T12:57:34;102430.00;;;4.90
72287;BMP180;60221;45.696;16.076;2022-12-18T13:00:11;102448.00;;;5.00
72287;BMP180;60221;45.696;16.076;2022-12-18T13:05:58;102442.00;;;4.90
72287;BMP180;60221;45.696;16.076;2022-12-18T13:08:31;102447.00;;;4.90
72287;BMP180;60221;45.696;16.076;2022-12-18T13:11:00;102433.00;;;4.90
72287;BMP180;60221;45.696;16.076;2022-12-18T13:13:53;102448.00;;;5.00
72287;BMP180;60221;45.696;16.076;2022-12-18T13:16:24;102461.00;;;5.00
72287;BMP180;60221;45.696;16.076;2022-12-18T13:18:54;102454.00;;;4.90
72287;BMP180;60221;45.696;16.076;2022-12-18T13:24:14;102453.00;;;4.90
72287;BMP180;60221;45.696;16.076;2022-12-18T13:26:48;102459.00;;;4.90
72287;BMP180;60221;45.696;16.076;2022-12-18T13:32:23;102464.00;;;4.90
72287;BMP180;60221;45.696;16.076;2022-12-18T13:37:53;102473.00;;;4.90
72287;BMP180;60221;45.696;16.076;2022-12-18T13:51:48;102468.00;;;4.80
72287;BMP180;60221;45.696;16.076;2022-12-18T13:54:37;102468.00;;;4.80
72287;BMP180;60221;45.696;16.076;2022-12-18T13:57:29;102467.00;;;4.80
72287;BMP180;60221;45.696;16.076;2022-12-18T13:59:58;102466.00;;;4.70
72287;BMP180;60221;45.696;16.076;2022-12-18T14:02:28;102464.00;;;4.70
72287;BMP180;60221;45.696;16.076;2022-12-18T14:04:55;102472.00;;;4.70
72287;BMP180;60221;45.696;16.076;2022-12-18T14:07:24;102466.00;;;4.70
72287;BMP180;60221;45.696;16.076;2022-12-18T14:09:54;102475.00;;;4.60
72287;BMP180;60221;45.696;16.076;2022-12-18T14:12:28;102484.00;;;4.60
72287;BMP180;60221;45.696;16.076;2022-12-18T14:15:33;102485.00;;;4.60
72287;BMP180;60221;45.696;16.076;2022-12-18T14:18:14;102492.00;;;4.60
72287;BMP180;60221;45.696;16.076;2022-12-18T14:20:36;102504.00;;;4.50
72287;BMP180;60221;45.696;16.076;2022-12-18T14:25:58;102511.00;;;4.50
72287;BMP180;60221;45.696;16.076;2022-12-18T14:28:26;102512.00;;;4.50
72287;BMP180;60221;45.696;16.076;2022-12-18T14:30:53;102514.00;;;4.50
72287;BMP180;60221;45.696;16.076;2022-12-18T14:33:23;102515.00;;;4.50
72287;BMP180;60221;45.696;16.076;2022-12-18T14:36:03;102513.00;;;4.40
72287;BMP180;60221;45.696;16.076;2022-12-18T14:38:33;102510.00;;;4.40
72287;BMP180;60221;45.696;16.076;2022-12-18T14:43:41;102522.00;;;4.30
72287;BMP180;60221;45.696;16.076;2022-12-18T14:46:34;102527.00;;;4.30
72287;BMP180;60221;45.696;16.076;2022-12-18T14:49:20;102525.00;;;4.30
72287;BMP180;60221;45.696;16.076;2022-12-18T14:51:51;102523.00;;;4.20
72287;BMP180;60221;45.696;16.076;2022-12-18T14:54:20;102524.00;;;4.20
72287;BMP180;60221;45.696;16.076;2022-12-18T14:56:51;102532.00;;;4.20
72287;BMP180;60221;45.696;16.076;2022-12-18T14:59:22;102531.00;;;4.20
72287;BMP180;60221;45.696;16.076;2022-12-18T15:05:04;102546.00;;;4.10
72287;BMP180;60221;45.696;16.076;2022-12-18T15:07:42;102555.00;;;4.00
72287;BMP180;60221;45.696;16.076;2022-12-18T15:10:14;102548.00;;;4.00
72287;BMP180;60221;45.696;16.076;2022-12-18T15:18:22;102548.00;;;3.80
72287;BMP180;60221;45.696;16.076;2022-12-18T15:20:59;102551.00;;;3.80
72287;BMP180;60221;45.696;16.076;2022-12-18T15:23:48;102557.00;;;3.80
72287;BMP180;60221;45.696;16.076;2022-12-18T15:26:21;102567.00;;;3.70
72287;BMP180;60221;45.696;16.076;2022-12-18T15:28:56;102568.00;;;3.70
72287;BMP180;60221;45.696;16.076;2022-12-18T15:31:31;102568.00;;;3.60
72287;BMP180;60221;45.696;16.076;2022-12-18T15:34:10;102565.00;;;3.60
72287;BMP180;60221;45.696;16.076;2022-12-18T15:36:40;102567.00;;;3.50
72287;BMP180;60221;45.696;16.076;2022-12-18T15:39:10;102565.00;;;3.50
72287;BMP180;60221;45.696;16.076;2022-12-18T15:41:40;102566.00;;;3.40
72287;BMP180;60221;45.696;16.076;2022-12-18T15:44:23;102576.00;;;3.40
72287;BMP180;60221;45.696;16.076;2022-12-18T15:46:52;102578.00;;;3.40
72287;BMP180;60221;45.696;16.076;2022-12-18T15:49:21;102583.00;;;3.40
72287;BMP180;60221;45.696;16.076;2022-12-18T15:51:54;102575.00;;;3.40
72287;BMP180;60221;45.696;16.076;2022-12-18T15:54:23;102578.00;;;3.40
72287;BMP180;60221;45.696;16.076;2022-12-18T15:57:12;102573.00;;;3.30
72287;BMP180;60221;45.696;16.076;2022-12-18T15:59:53;102581.00;;;3.30
72287;BMP180;60221;45.696;16.076;2022-12-18T16:02:26;102583.00;;;3.30
72287;BMP180;60221;45.696;16.076;2022-12-18T16:04:55;102584.00;;;3.20
72287;BMP180;60221;45.696;16.076;2022-12-18T16:07:23;102586.00;;;3.20
72287;BMP180;60221;45.696;16.076;2022-12-18T16:09:51;102577.00;;;3.10
72287;BMP180;60221;45.696;16.076;2022-12-18T16:12:22;102577.00;;;3.00
72287;BMP180;60221;45.696;16.076;2022-12-18T16:14:52;102587.00;;;3.00
72287;BMP180;60221;45.696;16.076;2022-12-18T16:17:20;102590.00;;;3.00
72287;BMP180;60221;45.696;16.076;2022-12-18T16:19:48;102590.00;;;2.90
72287;BMP180;60221;45.696;16.076;2022-12-18T16:24:52;102585.00;;;2.80
72287;BMP180;60221;45.696;16.076;2022-12-18T16:27:23;102579.00;;;2.80
72287;BMP180;60221;45.696;16.076;2022-12-18T16:29:51;102572.00;;;2.70
72287;BMP180;60221;45.696;16.076;2022-12-18T16:32:21;102579.00;;;2.70
72287;BMP180;60221;45.696;16.076;2022-12-18T16:34:50;102585.00;;;2.60
72287;BMP180;60221;45.696;16.076;2022-12-18T16:37:22;102587.00;;;2.60
72287;BMP180;60221;45.696;16.076;2022-12-18T16:39:51;102583.00;;;2.50
72287;BMP180;60221;45.696;16.076;2022-12-18T16:42:20;102578.00;;;2.50
72287;BMP180;60221;45.696;16.076;2022-12-18T16:44:48;102594.00;;;2.40